Yamaguchi, Japan
Current Conditions -  °F | °C
As of 10:00 AM on Wednesday 26 Nov 2014 (Local Time) from RJDC Reporting Station
Broken Clouds Broken Clouds  
Wind Chill: 61°   Ceiling: 5000
Heat Index: 61°   Visibility: 6mi
Dew Point: 52°   Wind: 6mph
Humidity: 72%   Direction: 350°N
Pressure: 29.91"   Gusts: NA
Location:  34.18°N, 131.48°E
Report Text: RJDC 260100Z 35005KT 300V050 9999 FEW025 SCT040 BKN050 16/11 Q1013
Loading
Personal Weather Stations






























Interactive Weather Map New forecast layout! Learn more

10-Day Weather Forecast

Advertisements
Track Severe Weather on mobile